createdAt,value
2018-09-05T00:01:43.908Z,14.40
2018-09-05T00:04:11.943Z,14.30
2018-09-05T00:06:40.018Z,14.30
2018-09-05T00:09:08.943Z,14.20
2018-09-05T00:11:37.843Z,14.20
2018-09-05T00:14:06.071Z,14.20
2018-09-05T00:16:34.199Z,14.10
2018-09-05T00:19:02.227Z,14.00
2018-09-05T00:21:30.532Z,14.10
2018-09-05T00:23:58.706Z,14.00
2018-09-05T00:26:26.840Z,14.00
2018-09-05T00:28:54.942Z,13.80
2018-09-05T00:31:22.991Z,13.90
2018-09-05T00:33:51.102Z,13.90
2018-09-05T00:36:19.142Z,13.80
2018-09-05T00:38:47.342Z,13.70
2018-09-05T00:41:15.417Z,13.60
2018-09-05T00:43:43.493Z,13.50
2018-09-05T00:46:11.589Z,13.50
2018-09-05T00:48:39.611Z,13.40
2018-09-05T00:51:07.714Z,13.40
2018-09-05T00:53:35.836Z,13.30
2018-09-05T00:56:03.963Z,13.30
2018-09-05T00:58:32.013Z,13.30
2018-09-05T01:01:00.189Z,13.30
2018-09-05T01:03:28.207Z,13.30
2018-09-05T01:05:56.323Z,13.30
2018-09-05T01:08:24.435Z,13.40
2018-09-05T01:10:52.474Z,13.40
2018-09-05T01:13:20.688Z,13.30
2018-09-05T01:15:48.727Z,13.20
2018-09-05T01:18:17.023Z,13.10
2018-09-05T01:20:45.375Z,13.10
2018-09-05T01:23:13.496Z,13.10
2018-09-05T01:25:41.554Z,13.10
2018-09-05T01:28:09.710Z,13.10
2018-09-05T01:30:37.804Z,13.10
2018-09-05T01:33:06.038Z,13.10
2018-09-05T01:35:34.404Z,13.10
2018-09-05T01:38:02.428Z,13.10
2018-09-05T01:40:30.401Z,13.10
2018-09-05T01:42:58.466Z,13.10
2018-09-05T01:45:26.661Z,13.10
2018-09-05T01:47:54.720Z,13.20
2018-09-05T01:50:28.258Z,13.20
2018-09-05T01:52:56.398Z,13.20
2018-09-05T01:55:24.470Z,13.10
2018-09-05T01:57:52.555Z,13.00
2018-09-05T02:00:26.087Z,12.90
2018-09-05T02:02:54.183Z,12.80
2018-09-05T02:05:22.263Z,12.60
2018-09-05T02:07:50.587Z,12.50
2018-09-05T02:10:18.794Z,12.40
2018-09-05T02:12:46.807Z,12.50
2018-09-05T02:15:14.888Z,12.50
2018-09-05T02:17:43.051Z,12.50
2018-09-05T02:20:11.242Z,12.60
2018-09-05T02:22:39.338Z,12.60
2018-09-05T02:25:07.779Z,12.50
2018-09-05T02:27:35.867Z,12.40
2018-09-05T02:30:04.636Z,12.40
2018-09-05T02:32:32.735Z,12.40
2018-09-05T02:35:07.579Z,12.40
2018-09-05T02:37:38.180Z,12.40
2018-09-05T02:40:09.483Z,12.50
2018-09-05T02:42:46.003Z,12.50
2018-09-05T02:45:16.662Z,12.50
2018-09-05T02:47:47.528Z,12.50
2018-09-05T02:50:19.690Z,12.50
2018-09-05T02:52:47.831Z,12.50
2018-09-05T02:55:21.267Z,12.40
2018-09-05T02:57:49.320Z,12.40
2018-09-05T03:00:17.390Z,12.30
2018-09-05T03:02:45.745Z,12.20
2018-09-05T03:05:13.938Z,12.20
2018-09-05T03:07:42.218Z,12.30
2018-09-05T03:10:10.514Z,12.20
2018-09-05T03:12:38.538Z,12.10
2018-09-05T03:15:07.170Z,11.90
2018-09-05T03:17:35.448Z,11.90
2018-09-05T03:20:03.602Z,11.90
2018-09-05T03:22:31.792Z,11.80
2018-09-05T03:24:59.847Z,11.80
2018-09-05T03:27:28.131Z,11.80
2018-09-05T03:29:56.213Z,11.80
2018-09-05T03:32:24.493Z,11.80
2018-09-05T03:34:52.447Z,11.90
2018-09-05T03:37:20.707Z,11.90
2018-09-05T03:39:48.910Z,11.90
2018-09-05T03:42:16.948Z,11.80
2018-09-05T03:44:45.151Z,11.80
2018-09-05T03:47:13.447Z,11.80
2018-09-05T03:49:41.746Z,11.80
2018-09-05T03:52:09.771Z,11.70
2018-09-05T03:54:37.956Z,11.70
2018-09-05T03:57:16.044Z,11.60
2018-09-05T03:59:57.628Z,11.60
2018-09-05T04:02:28.405Z,11.60
2018-09-05T04:04:57.623Z,11.50
2018-09-05T04:07:25.826Z,11.50
2018-09-05T04:09:53.848Z,11.60
2018-09-05T04:12:22.092Z,11.60
2018-09-05T04:14:50.484Z,11.60
2018-09-05T04:17:18.700Z,11.60
2018-09-05T04:19:46.714Z,11.50
2018-09-05T04:22:14.716Z,11.50
2018-09-05T04:24:42.775Z,11.50
2018-09-05T04:27:10.962Z,11.60
2018-09-05T04:29:39.048Z,11.60
2018-09-05T04:32:07.195Z,11.60
2018-09-05T04:34:35.507Z,11.60
2018-09-05T04:37:03.547Z,11.50
2018-09-05T04:39:31.634Z,11.40
2018-09-05T04:41:59.836Z,11.40
2018-09-05T04:44:27.990Z,11.40
2018-09-05T04:46:56.163Z,11.40
2018-09-05T04:49:24.403Z,11.40
2018-09-05T04:51:52.395Z,11.40
2018-09-05T04:54:20.701Z,11.40
2018-09-05T04:56:48.983Z,11.40
2018-09-05T04:59:17.126Z,11.30
2018-09-05T05:01:45.202Z,11.50
2018-09-05T05:04:13.290Z,11.70
2018-09-05T05:06:41.353Z,11.80
2018-09-05T05:09:11.011Z,11.80
2018-09-05T05:11:39.639Z,11.80
2018-09-05T05:14:07.718Z,11.90
2018-09-05T05:16:35.809Z,11.90
2018-09-05T05:19:04.169Z,11.90
2018-09-05T05:21:32.263Z,11.90
2018-09-05T05:24:00.315Z,11.90
2018-09-05T05:26:28.718Z,11.90
2018-09-05T05:28:56.959Z,12.00
2018-09-05T05:31:24.980Z,12.10
2018-09-05T05:33:53.037Z,12.20
2018-09-05T05:36:21.200Z,12.30
2018-09-05T05:38:49.287Z,12.40
2018-09-05T05:41:17.458Z,12.50
2018-09-05T05:43:45.722Z,12.50
2018-09-05T05:46:13.788Z,12.60
2018-09-05T05:48:41.973Z,12.70
2018-09-05T05:51:10.067Z,12.90
2018-09-05T05:53:38.106Z,13.00
2018-09-05T05:56:06.306Z,13.10
2018-09-05T05:58:34.363Z,13.40
2018-09-05T06:01:02.642Z,13.50
2018-09-05T06:03:30.742Z,13.50
2018-09-05T06:05:58.799Z,13.60
2018-09-05T06:08:26.880Z,13.70
2018-09-05T06:10:54.919Z,13.80
2018-09-05T06:13:23.027Z,14.00
2018-09-05T06:15:51.136Z,14.00
2018-09-05T06:18:19.280Z,14.10
2018-09-05T06:20:47.213Z,14.20
2018-09-05T06:23:15.215Z,14.30
2018-09-05T06:25:43.267Z,14.30
2018-09-05T06:28:11.466Z,14.30
2018-09-05T06:30:39.642Z,14.40
2018-09-05T06:33:07.708Z,14.60
2018-09-05T06:35:35.778Z,14.70
2018-09-05T06:38:03.860Z,14.80
2018-09-05T06:40:32.009Z,14.90
2018-09-05T06:43:00.103Z,15.00
2018-09-05T06:45:28.300Z,15.10
2018-09-05T06:47:56.335Z,15.30
2018-09-05T06:50:24.444Z,15.40
2018-09-05T06:52:52.511Z,15.60
2018-09-05T06:55:20.575Z,15.70
2018-09-05T06:57:48.802Z,15.80
2018-09-05T07:00:17.747Z,15.90
2018-09-05T07:02:45.851Z,15.90
2018-09-05T07:05:13.950Z,15.90
2018-09-05T07:07:41.980Z,16.20
2018-09-05T07:10:10.238Z,16.40
2018-09-05T07:12:38.214Z,16.30
2018-09-05T07:15:06.591Z,16.50
2018-09-05T07:17:34.803Z,16.60
2018-09-05T07:20:03.066Z,16.70
2018-09-05T07:22:31.099Z,16.80
2018-09-05T07:24:59.216Z,16.90
2018-09-05T07:27:27.277Z,17.10
2018-09-05T07:29:55.443Z,17.20
2018-09-05T07:32:23.515Z,17.30
2018-09-05T07:34:51.594Z,17.40
2018-09-05T07:37:19.730Z,17.50
2018-09-05T07:39:47.711Z,17.70
2018-09-05T07:42:16.012Z,17.80
2018-09-05T07:44:44.043Z,18.00
2018-09-05T07:47:12.055Z,18.10
2018-09-05T07:49:40.129Z,18.10
2018-09-05T07:52:08.272Z,18.20
2018-09-05T07:54:36.346Z,18.30
2018-09-05T07:57:04.555Z,18.50
2018-09-05T07:59:32.794Z,18.50
2018-09-05T08:02:00.841Z,18.70
2018-09-05T08:04:28.941Z,18.80
2018-09-05T08:06:57.046Z,19.00
2018-09-05T08:09:25.134Z,19.10
2018-09-05T08:11:53.223Z,19.00
2018-09-05T08:14:21.279Z,19.20
2018-09-05T08:16:49.415Z,19.30
2018-09-05T08:19:17.523Z,19.60
2018-09-05T08:21:45.437Z,19.50
2018-09-05T08:24:13.624Z,19.70
2018-09-05T08:26:41.631Z,19.60
2018-09-05T08:29:09.718Z,19.70
2018-09-05T08:31:37.799Z,19.60
2018-09-05T08:34:05.847Z,19.90
2018-09-05T08:36:34.111Z,20.00
2018-09-05T08:39:02.138Z,19.90
2018-09-05T08:41:30.155Z,20.20
2018-09-05T08:43:58.230Z,20.30
2018-09-05T08:46:26.220Z,20.30
2018-09-05T08:48:54.410Z,20.40
2018-09-05T08:51:22.449Z,20.50
2018-09-05T08:53:50.603Z,20.50
2018-09-05T08:56:18.880Z,20.50
2018-09-05T08:58:46.914Z,20.70
2018-09-05T09:01:15.076Z,20.90
2018-09-05T09:03:43.131Z,21.00
2018-09-05T09:06:11.311Z,21.00
2018-09-05T09:08:39.389Z,20.90
2018-09-05T09:11:07.438Z,21.10
2018-09-05T09:13:35.658Z,21.30
2018-09-05T09:16:03.796Z,21.40
2018-09-05T09:18:31.982Z,21.10
2018-09-05T09:21:00.344Z,21.10
2018-09-05T09:23:28.552Z,21.00
2018-09-05T09:25:56.605Z,21.20
2018-09-05T09:28:24.860Z,21.40
2018-09-05T09:30:52.880Z,21.50
2018-09-05T09:33:21.486Z,21.40
2018-09-05T09:35:49.632Z,21.50
2018-09-05T09:38:17.707Z,21.70
2018-09-05T09:40:45.805Z,21.70
2018-09-05T09:43:13.824Z,21.60
2018-09-05T09:45:41.930Z,21.40
2018-09-05T09:48:09.968Z,21.50
2018-09-05T09:50:38.058Z,21.50
2018-09-05T09:53:06.247Z,21.70
2018-09-05T09:55:34.391Z,21.60
2018-09-05T09:58:02.739Z,21.60
2018-09-05T10:00:36.366Z,21.80
2018-09-05T10:04:09.948Z,21.70
2018-09-05T10:06:40.913Z,21.70
2018-09-05T10:09:14.495Z,22.10
2018-09-05T10:11:47.914Z,22.10
2018-09-05T10:14:33.861Z,22.10
2018-09-05T10:17:07.625Z,22.10
2018-09-05T10:19:35.799Z,22.20
2018-09-05T10:22:03.895Z,22.20
2018-09-05T10:24:31.961Z,22.40
2018-09-05T10:27:00.153Z,22.30
2018-09-05T10:29:28.244Z,22.40
2018-09-05T10:31:56.416Z,22.30
2018-09-05T10:34:24.467Z,22.50
2018-09-05T10:36:52.869Z,22.70
2018-09-05T10:39:20.982Z,22.70
2018-09-05T10:41:48.894Z,22.60
2018-09-05T10:44:17.058Z,22.80
2018-09-05T10:46:45.418Z,23.20
2018-09-05T10:49:13.641Z,23.80
2018-09-05T10:51:47.429Z,24.20
2018-09-05T10:54:15.541Z,24.40
2018-09-05T10:56:43.596Z,24.20
2018-09-05T10:59:11.771Z,23.70
2018-09-05T11:01:39.913Z,23.90
2018-09-05T11:04:08.066Z,24.10
2018-09-05T11:06:36.138Z,24.10
2018-09-05T11:09:06.380Z,24.10
2018-09-05T11:11:34.589Z,23.80
2018-09-05T11:14:02.771Z,23.70
2018-09-05T11:16:30.815Z,24.20
2018-09-05T11:18:58.901Z,24.40
2018-09-05T11:21:27.020Z,24.50
2018-09-05T11:23:55.386Z,24.40
2018-09-05T11:26:23.400Z,24.60
2018-09-05T11:28:51.571Z,24.10
2018-09-05T11:31:18.957Z,23.50
2018-09-05T11:33:46.283Z,23.00
2018-09-05T11:36:13.558Z,23.00
2018-09-05T11:38:41.020Z,23.50
2018-09-05T11:41:08.708Z,23.50
2018-09-05T11:43:36.142Z,23.90
2018-09-05T11:46:03.582Z,24.10
2018-09-05T11:48:30.958Z,23.80
2018-09-05T11:50:58.699Z,23.50
2018-09-05T11:53:25.977Z,23.90
2018-09-05T11:55:53.424Z,23.90
2018-09-05T11:58:21.020Z,24.10
2018-09-05T12:00:48.446Z,24.10
2018-09-05T12:03:15.831Z,23.90
2018-09-05T12:05:43.153Z,23.50
2018-09-05T12:08:10.537Z,23.20
2018-09-05T12:10:38.038Z,22.90
2018-09-05T12:13:05.346Z,23.40
2018-09-05T12:15:32.737Z,23.80
2018-09-05T12:18:00.139Z,24.10
2018-09-05T12:20:27.631Z,24.40
2018-09-05T12:22:54.949Z,23.90
2018-09-05T12:25:22.401Z,23.30
2018-09-05T12:27:49.868Z,23.30
2018-09-05T12:30:17.346Z,23.60
2018-09-05T12:32:44.700Z,24.10
2018-09-05T12:35:12.190Z,24.40
2018-09-05T12:37:39.517Z,24.10
2018-09-05T12:40:07.081Z,23.90
2018-09-05T12:42:34.450Z,23.50
2018-09-05T12:45:01.818Z,23.40
2018-09-05T12:47:29.151Z,24.10
2018-09-05T12:49:56.513Z,24.20
2018-09-05T12:52:23.885Z,24.30
2018-09-05T12:54:51.563Z,23.60
2018-09-05T12:57:19.339Z,23.20
2018-09-05T12:59:46.692Z,23.00
2018-09-05T13:02:14.091Z,22.70
2018-09-05T13:04:41.488Z,22.80
2018-09-05T13:07:09.012Z,23.30
2018-09-05T13:09:36.487Z,23.70
2018-09-05T13:12:03.939Z,23.70
2018-09-05T13:14:31.381Z,24.10
2018-09-05T13:16:58.954Z,24.10
2018-09-05T13:19:26.332Z,23.90
2018-09-05T13:21:53.669Z,23.90
2018-09-05T13:24:21.030Z,23.90
2018-09-05T13:26:48.617Z,23.90
2018-09-05T13:29:16.050Z,23.80
2018-09-05T13:31:44.097Z,23.90
2018-09-05T13:34:12.194Z,23.90
2018-09-05T13:36:39.650Z,23.60
2018-09-05T13:39:08.759Z,23.30
2018-09-05T13:41:36.934Z,23.30
2018-09-05T13:44:05.083Z,23.50
2018-09-05T13:46:33.288Z,23.50
2018-09-05T13:49:01.334Z,23.80
2018-09-05T13:51:29.554Z,23.90
2018-09-05T13:53:57.613Z,23.90
2018-09-05T13:56:25.741Z,23.90
2018-09-05T13:58:53.130Z,23.60
2018-09-05T14:01:20.466Z,23.60
2018-09-05T14:03:47.748Z,23.80
2018-09-05T14:06:15.095Z,23.60
2018-09-05T14:08:42.491Z,23.80
2018-09-05T14:11:09.806Z,23.90
2018-09-05T14:13:37.424Z,23.60
2018-09-05T14:16:04.766Z,23.20
2018-09-05T14:18:32.150Z,23.30
2018-09-05T14:20:59.565Z,23.30
2018-09-05T14:23:26.878Z,23.20
2018-09-05T14:25:54.268Z,23.40
2018-09-05T14:28:21.626Z,23.40
2018-09-05T14:30:48.953Z,23.20
2018-09-05T14:33:16.933Z,23.30
2018-09-05T14:35:44.274Z,23.40
2018-09-05T14:38:11.663Z,23.40
2018-09-05T14:40:39.174Z,23.30
2018-09-05T14:43:06.591Z,23.30
2018-09-05T14:45:33.922Z,23.40
2018-09-05T14:48:01.260Z,23.20
2018-09-05T14:50:28.650Z,23.50
2018-09-05T14:52:55.965Z,23.30
2018-09-05T14:55:23.353Z,23.40
2018-09-05T14:57:50.681Z,23.40
2018-09-05T15:00:18.057Z,23.40
2018-09-05T15:02:45.518Z,23.10
2018-09-05T15:05:12.911Z,23.20
2018-09-05T15:07:44.662Z,23.30
2018-09-05T15:10:11.971Z,23.20
2018-09-05T15:12:39.252Z,23.40
2018-09-05T15:15:06.770Z,23.30
2018-09-05T15:17:34.081Z,23.10
2018-09-05T15:20:01.426Z,23.00
2018-09-05T15:22:28.750Z,22.90
2018-09-05T15:24:56.050Z,23.00
2018-09-05T15:27:23.378Z,23.00
2018-09-05T15:29:50.867Z,22.90
2018-09-05T15:32:18.210Z,23.10
2018-09-05T15:34:45.530Z,22.90
2018-09-05T15:37:13.033Z,22.80
2018-09-05T15:39:40.350Z,22.80
2018-09-05T15:42:07.852Z,22.80
2018-09-05T15:44:35.201Z,22.90
2018-09-05T15:47:02.627Z,22.90
2018-09-05T15:49:31.424Z,22.80
2018-09-05T15:52:04.896Z,22.80
2018-09-05T15:54:39.892Z,22.80
2018-09-05T15:57:13.374Z,22.60
2018-09-05T15:59:41.841Z,22.60
2018-09-05T16:02:12.473Z,22.50
2018-09-05T16:04:39.986Z,22.50
2018-09-05T16:07:08.130Z,22.50
2018-09-05T16:09:41.756Z,22.50
2018-09-05T16:12:11.294Z,22.40
2018-09-05T16:14:42.391Z,22.40
2018-09-05T16:17:12.550Z,22.40
2018-09-05T16:19:43.821Z,22.40
2018-09-05T16:22:14.770Z,22.30
2018-09-05T16:24:46.174Z,22.30
2018-09-05T16:27:16.809Z,22.20
2018-09-05T16:29:51.251Z,22.20
2018-09-05T16:32:21.447Z,22.10
2018-09-05T16:34:52.158Z,22.00
2018-09-05T16:37:22.324Z,21.90
2018-09-05T16:39:52.737Z,21.90
2018-09-05T16:42:23.734Z,21.80
2018-09-05T16:44:54.892Z,21.70
2018-09-05T16:47:25.799Z,21.60
2018-09-05T16:50:01.682Z,21.50
2018-09-05T16:52:36.749Z,21.40
2018-09-05T16:55:15.548Z,21.40
2018-09-05T16:57:51.102Z,21.30
2018-09-05T17:00:26.616Z,21.20
2018-09-05T17:03:00.335Z,21.10
2018-09-05T17:05:37.485Z,21.00
2018-09-05T17:08:12.949Z,20.90
2018-09-05T17:10:48.538Z,20.80
2018-09-05T17:13:22.880Z,20.70
2018-09-05T17:15:57.360Z,20.60
2018-09-05T17:18:31.672Z,20.50
2018-09-05T17:21:06.375Z,20.60
2018-09-05T17:23:40.801Z,20.70
2018-09-05T17:26:14.733Z,20.60
2018-09-05T17:28:48.834Z,20.50
2018-09-05T17:31:23.772Z,20.30
2018-09-05T17:33:58.735Z,20.10
2018-09-05T17:36:32.862Z,20.00
2018-09-05T17:39:10.120Z,19.70
2018-09-05T17:41:46.088Z,19.50
2018-09-05T17:44:24.230Z,19.30
2018-09-05T17:46:59.904Z,19.10
2018-09-05T17:49:34.959Z,19.00
2018-09-05T17:52:09.039Z,18.80
2018-09-05T17:54:39.144Z,18.60
2018-09-05T17:57:09.660Z,18.50
2018-09-05T17:59:39.746Z,18.40
2018-09-05T18:02:15.072Z,18.20
2018-09-05T18:04:50.396Z,17.90
2018-09-05T18:07:26.433Z,17.70
2018-09-05T18:10:02.357Z,17.60
2018-09-05T18:12:39.893Z,17.60
2018-09-05T18:15:17.674Z,17.60
2018-09-05T18:17:53.892Z,17.40
2018-09-05T18:20:33.330Z,17.20
2018-09-05T18:23:11.869Z,17.00
2018-09-05T18:25:48.818Z,16.90
2018-09-05T18:28:24.079Z,16.90
2018-09-05T18:31:01.591Z,16.80
2018-09-05T18:33:37.152Z,16.80
2018-09-05T18:36:16.339Z,16.70
2018-09-05T18:38:54.790Z,16.70
2018-09-05T18:41:32.066Z,16.60
2018-09-05T18:44:07.707Z,16.50
2018-09-05T18:46:44.843Z,16.50
2018-09-05T18:49:16.989Z,16.40
2018-09-05T18:51:51.197Z,16.20
2018-09-05T18:54:24.423Z,16.20
2018-09-05T18:57:02.961Z,16.10
2018-09-05T18:59:37.209Z,16.10
2018-09-05T19:02:11.176Z,16.10
2018-09-05T19:04:44.410Z,16.10
2018-09-05T19:07:19.234Z,16.00
2018-09-05T19:09:54.006Z,16.00
2018-09-05T19:12:27.486Z,15.90
2018-09-05T19:15:01.221Z,15.90
2018-09-05T19:17:35.142Z,15.80
2018-09-05T19:20:11.408Z,15.70
2018-09-05T19:22:45.792Z,15.60
2018-09-05T19:25:19.487Z,15.60
2018-09-05T19:27:54.769Z,15.60
2018-09-05T19:30:28.966Z,15.60
2018-09-05T19:33:02.863Z,15.60
2018-09-05T19:35:37.732Z,15.50
2018-09-05T19:38:12.732Z,15.40
2018-09-05T19:40:49.155Z,15.40
2018-09-05T19:43:27.643Z,15.40
2018-09-05T19:45:55.003Z,15.40
2018-09-05T19:48:22.494Z,15.40
2018-09-05T19:50:49.822Z,15.30
2018-09-05T19:53:17.194Z,15.30
2018-09-05T19:55:44.536Z,15.30
2018-09-05T19:58:11.981Z,15.10
2018-09-05T20:00:39.362Z,15.10
2018-09-05T20:03:06.714Z,15.10
2018-09-05T20:05:34.070Z,15.10
2018-09-05T20:08:01.415Z,15.20
2018-09-05T20:10:28.787Z,15.10
2018-09-05T20:12:56.153Z,15.10
2018-09-05T20:15:23.506Z,15.10
2018-09-05T20:17:50.852Z,15.20
2018-09-05T20:20:18.209Z,15.10
2018-09-05T20:22:45.571Z,15.00
2018-09-05T20:25:12.926Z,15.00
2018-09-05T20:27:40.302Z,15.00
2018-09-05T20:30:07.834Z,15.00
2018-09-05T20:32:35.194Z,15.00
2018-09-05T20:35:02.647Z,15.00
2018-09-05T20:37:29.995Z,14.90
2018-09-05T20:39:57.407Z,14.80
2018-09-05T20:42:24.805Z,14.70
2018-09-05T20:44:52.313Z,14.60
2018-09-05T20:47:19.814Z,14.60
2018-09-05T20:49:47.201Z,14.50
2018-09-05T20:52:14.555Z,14.40
2018-09-05T20:54:41.942Z,14.40
2018-09-05T20:57:09.251Z,14.50
2018-09-05T20:59:36.551Z,14.50
2018-09-05T21:02:03.858Z,14.40
2018-09-05T21:04:31.154Z,14.40
2018-09-05T21:06:58.762Z,14.30
2018-09-05T21:09:26.057Z,14.20
2018-09-05T21:11:53.418Z,14.20
2018-09-05T21:14:20.801Z,14.10
2018-09-05T21:16:48.125Z,14.00
2018-09-05T21:19:15.470Z,14.10
2018-09-05T21:21:42.842Z,14.00
2018-09-05T21:24:10.169Z,14.10
2018-09-05T21:26:37.595Z,14.00
2018-09-05T21:29:04.877Z,13.90
2018-09-05T21:31:32.270Z,13.90
2018-09-05T21:33:59.617Z,13.80
2018-09-05T21:36:26.954Z,13.80
2018-09-05T21:38:54.318Z,13.80
2018-09-05T21:41:21.662Z,13.80
2018-09-05T21:43:48.942Z,13.70
2018-09-05T21:46:16.274Z,13.70
2018-09-05T21:48:43.653Z,13.70
2018-09-05T21:51:11.117Z,13.70
2018-09-05T21:53:38.453Z,13.60
2018-09-05T21:56:05.718Z,13.60
2018-09-05T21:58:33.078Z,13.50
2018-09-05T22:01:00.442Z,13.50
2018-09-05T22:03:27.785Z,13.40
2018-09-05T22:05:55.348Z,13.40
2018-09-05T22:08:22.699Z,13.40
2018-09-05T22:10:50.165Z,13.40
2018-09-05T22:13:17.609Z,13.40
2018-09-05T22:15:46.975Z,13.40
2018-09-05T22:18:14.882Z,13.40
2018-09-05T22:20:42.280Z,13.30
2018-09-05T22:23:09.797Z,13.30
2018-09-05T22:25:37.174Z,13.20
2018-09-05T22:28:04.501Z,13.20
2018-09-05T22:30:32.502Z,13.20
2018-09-05T22:32:59.830Z,13.20
2018-09-05T22:35:27.195Z,13.20
2018-09-05T22:37:54.809Z,13.20
2018-09-05T22:40:22.114Z,13.10
2018-09-05T22:42:55.016Z,13.00
2018-09-05T22:45:27.877Z,13.00
2018-09-05T22:48:09.109Z,12.90
2018-09-05T22:50:57.370Z,12.80
2018-09-05T22:53:34.619Z,12.80
2018-09-05T22:56:49.218Z,12.80
2018-09-05T23:00:22.196Z,12.80
2018-09-05T23:02:55.050Z,12.80
2018-09-05T23:05:31.031Z,12.70
2018-09-05T23:08:12.127Z,12.60
2018-09-05T23:10:46.690Z,12.60
2018-09-05T23:13:21.534Z,12.70
2018-09-05T23:15:56.249Z,12.80
2018-09-05T23:18:29.238Z,12.70
2018-09-05T23:21:13.739Z,12.70
2018-09-05T23:23:46.498Z,12.70
2018-09-05T23:26:13.774Z,12.80
2018-09-05T23:28:41.106Z,12.90
2018-09-05T23:31:08.506Z,12.70
2018-09-05T23:33:36.353Z,12.70
2018-09-05T23:36:04.123Z,12.70
2018-09-05T23:38:31.558Z,12.70
2018-09-05T23:40:58.839Z,12.70
2018-09-05T23:43:26.190Z,12.70
2018-09-05T23:45:53.560Z,12.80
2018-09-05T23:48:20.988Z,12.80
2018-09-05T23:50:48.380Z,12.70
2018-09-05T23:53:15.862Z,12.60
2018-09-05T23:55:43.182Z,12.60
2018-09-05T23:58:10.517Z,12.60
